Terminal Aerodrome Forecast
Issued by NWS

Home | Current Version | Previous Version | Graphics & Text | Print | Product List | Glossary On
Versions: 1 2 3 4 5 6 7 8 9 10 11 12 13 14 15 16 17
000
FTUS43 KBIS 240500 RRA
TAFMOT
TAF
KMOT 240559Z 2406/2506 30019G26KT P6SM VCSH OVC025
     FM241000 31017G25KT P6SM VCSH BKN025
     FM241400 33014KT P6SM SCT025 BKN120
     FM242000 36008KT P6SM OVC110
     FM250000 03005KT P6SM BKN070 OVC090
     FM250300 07008KT 4SM -SN OVC060=

USA.gov is the U.S. government's official web portal to all federal, state and local government web resources and services.